createdAt,value
2016-06-07T00:00:47.178Z,13.2
2016-06-07T00:03:56.017Z,13.1
2016-06-07T00:07:09.104Z,13
2016-06-07T00:10:27.127Z,12.9
2016-06-07T00:13:31.073Z,12.9
2016-06-07T00:16:44.440Z,12.9
2016-06-07T00:19:57.467Z,12.8
2016-06-07T00:23:11.162Z,12.8
2016-06-07T00:26:28.873Z,12.7
2016-06-07T00:29:32.757Z,12.7
2016-06-07T00:32:46.155Z,12.7
2016-06-07T00:35:59.650Z,12.6
2016-06-07T00:39:13.252Z,12.6
2016-06-07T00:42:31.713Z,12.5
2016-06-07T00:45:35.503Z,12.4
2016-06-07T00:48:48.807Z,12.3
2016-06-07T00:52:01.912Z,12.2
2016-06-07T00:55:15.045Z,12.1
2016-06-07T00:58:33.256Z,12.1
2016-06-07T01:01:37.342Z,12
2016-06-07T01:04:50.772Z,12
2016-06-07T01:08:03.861Z,11.9
2016-06-07T01:11:17.244Z,11.9
2016-06-07T01:14:30.174Z,11.9
2016-06-07T01:17:43.135Z,11.8
2016-06-07T01:20:56.553Z,11.7
2016-06-07T01:24:09.576Z,11.6
2016-06-07T01:27:27.444Z,11.7
2016-06-07T01:30:31.155Z,11.7
2016-06-07T01:33:43.991Z,11.6
2016-06-07T01:36:57.236Z,11.5
2016-06-07T01:40:10.447Z,11.4
2016-06-07T01:43:28.096Z,11.3
2016-06-07T01:46:31.823Z,11.3
2016-06-07T01:49:44.819Z,11.2
2016-06-07T01:52:57.543Z,11.2
2016-06-07T01:56:10.521Z,11.1
2016-06-07T01:59:28.212Z,11.1
2016-06-07T02:02:31.898Z,11.1
2016-06-07T02:05:44.722Z,11
2016-06-07T02:08:57.907Z,11
2016-06-07T02:12:08.791Z,11
2016-06-07T02:15:26.721Z,10.9
2016-06-07T02:18:30.230Z,10.9
2016-06-07T02:21:43.346Z,10.9
2016-06-07T02:24:56.215Z,10.8
2016-06-07T02:28:09.381Z,10.8
2016-06-07T02:31:27.561Z,10.7
2016-06-07T02:34:31.179Z,10.6
2016-06-07T02:37:44.327Z,10.6
2016-06-07T02:40:57.601Z,10.5
2016-06-07T02:44:10.549Z,10.5
2016-06-07T02:47:28.338Z,10.5
2016-06-07T02:50:31.847Z,10.4
2016-06-07T02:53:45.011Z,10.4
2016-06-07T02:56:57.863Z,10.4
2016-06-07T03:00:10.062Z,10.4
2016-06-07T03:03:27.694Z,10.4
2016-06-07T03:06:32.139Z,10.4
2016-06-07T03:09:44.211Z,10.3
2016-06-07T03:12:57.249Z,10.3
2016-06-07T03:16:10.135Z,10.3
2016-06-07T03:19:27.847Z,10.2
2016-06-07T03:22:31.371Z,10.2
2016-06-07T03:25:44.582Z,10.2
2016-06-07T03:28:57.402Z,10.2
2016-06-07T03:32:10.695Z,10.2
2016-06-07T03:35:28.295Z,10.2
2016-06-07T03:38:31.819Z,10.2
2016-06-07T03:41:44.594Z,10.2
2016-06-07T03:44:57.242Z,10.2
2016-06-07T03:48:10.330Z,10.3
2016-06-07T03:51:28.339Z,10.2
2016-06-07T03:54:31.800Z,10.2
2016-06-07T03:57:42.854Z,10.2
2016-06-07T04:00:55.566Z,10.1
2016-06-07T04:04:08.608Z,10.1
2016-06-07T04:07:26.039Z,10.1
2016-06-07T04:10:34.437Z,10.1
2016-06-07T04:13:37.992Z,10.1
2016-06-07T04:16:50.733Z,10.2
2016-06-07T04:20:03.307Z,10.1
2016-06-07T04:23:13.550Z,10.2
2016-06-07T04:26:31.120Z,10.2
2016-06-07T04:29:34.519Z,10.3
2016-06-07T04:32:47.434Z,10.4
2016-06-07T04:36:00.488Z,10.5
2016-06-07T04:39:13.405Z,10.6
2016-06-07T04:42:31.429Z,10.8
2016-06-07T04:45:35.233Z,11
2016-06-07T04:48:48.586Z,11.2
2016-06-07T04:52:02.313Z,11.5
2016-06-07T04:55:15.652Z,11.9
2016-06-07T04:58:34.097Z,12.3
2016-06-07T05:01:38.059Z,12.5
2016-06-07T05:04:51.223Z,12.9
2016-06-07T05:08:05.781Z,13.2
2016-06-07T05:11:18.570Z,13.4
2016-06-07T05:14:32.125Z,13.5
2016-06-07T05:17:45.460Z,13.6
2016-06-07T05:20:58.719Z,13.8
2016-06-07T05:24:11.792Z,13.9
2016-06-07T05:27:29.425Z,14.2
2016-06-07T05:30:33.386Z,14.4
2016-06-07T05:33:46.566Z,14.6
2016-06-07T05:37:00.246Z,14.8
2016-06-07T05:40:13.695Z,14.9
2016-06-07T05:43:31.718Z,15
2016-06-07T05:46:35.773Z,15.1
2016-06-07T05:49:49.172Z,15.3
2016-06-07T05:53:02.602Z,15.6
2016-06-07T05:56:15.832Z,15.6
2016-06-07T05:59:34.511Z,16
2016-06-07T06:02:38.707Z,16.2
2016-06-07T06:05:51.887Z,16.6
2016-06-07T06:09:05.332Z,17.1
2016-06-07T06:12:18.296Z,17.3
2016-06-07T06:15:31.945Z,17.8
2016-06-07T06:18:45.781Z,18.3
2016-06-07T06:21:59.539Z,18.9
2016-06-07T06:25:13.253Z,19.2
2016-06-07T06:28:31.793Z,19.6
2016-06-07T06:31:36.144Z,20.4
2016-06-07T06:34:48.105Z,20.8
2016-06-07T06:38:04.535Z,21.4
2016-06-07T06:41:18.795Z,22
2016-06-07T06:44:33.367Z,23
2016-06-07T06:47:47.734Z,23.9
2016-06-07T06:51:02.398Z,24.6
2016-06-07T06:54:16.706Z,25
2016-06-07T06:57:35.730Z,25.3
2016-06-07T07:00:40.643Z,25.7
2016-06-07T07:03:55.277Z,26
2016-06-07T07:07:07.785Z,26.8
2016-06-07T07:10:29.156Z,27.3
2016-06-07T07:13:34.554Z,27.5
2016-06-07T07:16:49.422Z,27.6
2016-06-07T07:20:04.211Z,28.1
2016-06-07T07:23:19.283Z,27.9
2016-06-07T07:26:34.386Z,27.8
2016-06-07T07:29:49.769Z,28.8
2016-06-07T07:33:02.761Z,29.5
2016-06-07T07:36:18.226Z,30.1
2016-06-07T07:39:33.623Z,30.4
2016-06-07T07:42:49.101Z,30.4
2016-06-07T07:46:04.937Z,30.9
2016-06-07T07:49:20.822Z,31.3
2016-06-07T07:52:37.206Z,31.8
2016-06-07T07:55:52.636Z,31.6
2016-06-07T07:59:08.472Z,32
2016-06-07T08:02:21.467Z,32.1
2016-06-07T08:05:37.224Z,32.3
2016-06-07T08:08:52.749Z,32.5
2016-06-07T08:12:08.320Z,33.1
2016-06-07T08:15:28.830Z,33.1
2016-06-07T08:18:34.745Z,32.9
2016-06-07T08:21:50.174Z,32.8
2016-06-07T08:25:05.605Z,32.6
2016-06-07T08:28:21.036Z,32.6
2016-06-07T08:31:36.436Z,32.6
2016-06-07T08:34:51.896Z,32.7
2016-06-07T08:38:07.186Z,32.9
2016-06-07T08:41:27.744Z,33.3
2016-06-07T08:44:33.564Z,33.5
2016-06-07T08:47:49.057Z,33.7
2016-06-07T08:51:04.220Z,33.5
2016-06-07T08:54:19.716Z,33.8
2016-06-07T08:57:32.912Z,33.9
2016-06-07T09:00:50.436Z,34.2
2016-06-07T09:04:05.663Z,34.3
2016-06-07T09:07:19.501Z,34.3
2016-06-07T09:10:36.431Z,33.9
2016-06-07T09:13:51.783Z,34.1
2016-06-07T09:17:07.307Z,34.3
2016-06-07T09:20:27.661Z,34.6
2016-06-07T09:23:33.716Z,34.8
2016-06-07T09:26:48.037Z,34.6
2016-06-07T09:30:03.247Z,34.3
2016-06-07T09:33:18.447Z,33.6
2016-06-07T09:36:33.532Z,33.7
2016-06-07T09:39:48.571Z,33.9
2016-06-07T09:43:03.721Z,33.9
2016-06-07T09:46:17.107Z,34.2
2016-06-07T09:49:34.068Z,33.3
2016-06-07T09:52:49.138Z,32.4
2016-06-07T09:56:03.943Z,32
2016-06-07T09:59:18.922Z,31.7
2016-06-07T10:02:33.696Z,31.4
2016-06-07T10:05:48.720Z,31.6
2016-06-07T10:09:03.713Z,31.2
2016-06-07T10:12:18.676Z,30.8
2016-06-07T10:15:36.654Z,30.1
2016-06-07T10:18:41.380Z,29.6
2016-06-07T10:21:55.841Z,29.2
2016-06-07T10:25:10.178Z,28.8
2016-06-07T10:28:29.483Z,28.6
2016-06-07T10:31:33.975Z,28.2
2016-06-07T10:34:48.127Z,28
2016-06-07T10:38:02.728Z,27.4
2016-06-07T10:41:15.737Z,26.7
2016-06-07T10:44:34.073Z,26.4
2016-06-07T10:47:37.800Z,26.2
2016-06-07T10:50:51.045Z,26.3
2016-06-07T10:54:04.631Z,26.3
2016-06-07T10:57:18.541Z,26.2
2016-06-07T11:00:34.337Z,25.9
2016-06-07T11:03:38.173Z,25.8
2016-06-07T11:06:51.742Z,25.7
2016-06-07T11:10:05.365Z,25.6
2016-06-07T11:13:19.079Z,25.6
2016-06-07T11:16:32.744Z,25.2
2016-06-07T11:19:46.709Z,24.8
2016-06-07T11:23:00.686Z,24.6
2016-06-07T11:26:14.194Z,24.5
2016-06-07T11:29:32.249Z,24.3
2016-06-07T11:32:36.258Z,24.3
2016-06-07T11:35:50.002Z,24.3
2016-06-07T11:39:00.541Z,24.2
2016-06-07T11:42:14.284Z,23.9
2016-06-07T11:45:32.823Z,23.7
2016-06-07T11:48:36.675Z,23.4
2016-06-07T11:51:49.873Z,23.2
2016-06-07T11:55:03.428Z,23.1
2016-06-07T11:58:16.764Z,23
2016-06-07T12:01:35.241Z,22.8
2016-06-07T12:04:39.108Z,22.6
2016-06-07T12:07:52.776Z,22.6
2016-06-07T12:11:06.409Z,22.5
2016-06-07T12:14:20.104Z,22.5
2016-06-07T12:17:33.675Z,22.5
2016-06-07T12:20:44.745Z,22.6
2016-06-07T12:23:58.569Z,22.6
2016-06-07T12:27:11.827Z,22.6
2016-06-07T12:30:30.147Z,22.6
2016-06-07T12:33:34.108Z,22.5
2016-06-07T12:36:47.866Z,22.5
2016-06-07T12:40:01.237Z,22.4
2016-06-07T12:43:12.979Z,22.4
2016-06-07T12:46:33.362Z,22.4
2016-06-07T12:49:37.184Z,22.4
2016-06-07T12:52:50.787Z,22.4
2016-06-07T12:56:04.389Z,22.4
2016-06-07T12:59:17.741Z,22.4
2016-06-07T13:02:36.483Z,22.5
2016-06-07T13:05:40.258Z,22.5
2016-06-07T13:08:53.783Z,22.4
2016-06-07T13:12:06.745Z,22.4
2016-06-07T13:15:20.221Z,22.4
2016-06-07T13:18:33.667Z,22.4
2016-06-07T13:21:47.253Z,22.4
2016-06-07T13:25:00.764Z,22.4
2016-06-07T13:28:12.304Z,22.4
2016-06-07T13:31:30.936Z,22.4
2016-06-07T13:34:34.710Z,22.4
2016-06-07T13:37:48.141Z,22.3
2016-06-07T13:41:01.807Z,22.3
2016-06-07T13:44:15.096Z,22.3
2016-06-07T13:47:33.776Z,22.3
2016-06-07T13:50:37.707Z,22.4
2016-06-07T13:53:51.356Z,22.4
2016-06-07T13:57:04.959Z,22.4
2016-06-07T14:00:18.514Z,22.4
2016-06-07T14:03:37.116Z,22.4
2016-06-07T14:06:41.093Z,22.4
2016-06-07T14:09:55.511Z,22.4
2016-06-07T14:13:06.440Z,22.4
2016-06-07T14:16:20.339Z,22.4
2016-06-07T14:19:34.331Z,22.3
2016-06-07T14:22:47.823Z,22.3
2016-06-07T14:26:01.350Z,22.3
2016-06-07T14:29:14.670Z,22.3
2016-06-07T14:32:33.069Z,22.3
2016-06-07T14:35:37.046Z,22.3
2016-06-07T14:38:50.522Z,22.2
2016-06-07T14:42:04.221Z,22.2
2016-06-07T14:45:17.995Z,22.2
2016-06-07T14:48:36.768Z,22.2
2016-06-07T14:51:40.682Z,22.2
2016-06-07T14:54:54.441Z,22.2
2016-06-07T14:58:08.295Z,22.2
2016-06-07T15:01:22.085Z,22.2
2016-06-07T15:04:35.890Z,22.2
2016-06-07T15:07:49.461Z,22.2
2016-06-07T15:11:03.206Z,22.2
2016-06-07T15:14:15.527Z,22.2
2016-06-07T15:17:34.034Z,22.2
2016-06-07T15:20:38.167Z,22.2
2016-06-07T15:23:52.019Z,22.2
2016-06-07T15:27:05.748Z,22.2
2016-06-07T15:30:19.412Z,22.3
2016-06-07T15:33:38.217Z,22.3
2016-06-07T15:36:42.211Z,22.3
2016-06-07T15:39:56.031Z,22.3
2016-06-07T15:43:07.979Z,22.2
2016-06-07T15:46:20.237Z,22.2
2016-06-07T15:49:37.433Z,22.2
2016-06-07T15:52:41.394Z,22.1
2016-06-07T15:55:54.854Z,22.2
2016-06-07T15:59:06.725Z,22.2
2016-06-07T16:02:22.328Z,22.2
2016-06-07T16:05:38.867Z,22.2
2016-06-07T16:08:42.875Z,22.2
2016-06-07T16:11:56.741Z,22.1
2016-06-07T16:15:10.580Z,22.1
2016-06-07T16:18:29.433Z,22.1
2016-06-07T16:21:38.504Z,22.1
2016-06-07T16:24:42.401Z,22.1
2016-06-07T16:27:56.159Z,22.1
2016-06-07T16:31:06.717Z,22.1
2016-06-07T16:34:20.209Z,22.1
2016-06-07T16:37:38.890Z,22.1
2016-06-07T16:40:42.945Z,22.1
2016-06-07T16:43:56.531Z,22.1
2016-06-07T16:47:10.386Z,22.1
2016-06-07T16:50:24.127Z,22.1
2016-06-07T16:53:37.855Z,22
2016-06-07T16:56:51.301Z,22
2016-06-07T17:00:04.984Z,22
2016-06-07T17:03:16.851Z,22
2016-06-07T17:06:35.484Z,21.9
2016-06-07T17:09:39.335Z,21.9
2016-06-07T17:12:52.953Z,21.9
2016-06-07T17:16:06.604Z,21.9
2016-06-07T17:19:20.175Z,21.9
2016-06-07T17:22:38.824Z,21.9
2016-06-07T17:25:42.597Z,21.8
2016-06-07T17:28:55.871Z,21.9
2016-06-07T17:32:09.022Z,21.8
2016-06-07T17:35:22.734Z,21.8
2016-06-07T17:38:36.132Z,21.8
2016-06-07T17:41:49.780Z,21.8
2016-06-07T17:45:03.320Z,21.7
2016-06-07T17:48:16.940Z,21.7
2016-06-07T17:51:35.416Z,21.7
2016-06-07T17:54:39.300Z,21.7
2016-06-07T17:57:52.683Z,21.7
2016-06-07T18:01:06.240Z,21.6
2016-06-07T18:04:19.640Z,21.6
2016-06-07T18:07:38.085Z,21.5
2016-06-07T18:10:41.906Z,21.4
2016-06-07T18:13:55.242Z,21.2
2016-06-07T18:17:06.206Z,21.1
2016-06-07T18:20:19.166Z,21.1
2016-06-07T18:23:37.316Z,21
2016-06-07T18:26:40.980Z,20.9
2016-06-07T18:29:53.301Z,20.8
2016-06-07T18:33:06.624Z,20.7
2016-06-07T18:36:19.992Z,20.6
2016-06-07T18:39:38.218Z,20.6
2016-06-07T18:42:41.711Z,20.5
2016-06-07T18:45:55.047Z,20.4
2016-06-07T18:49:08.197Z,20.4
2016-06-07T18:52:21.253Z,20.4
2016-06-07T18:55:39.761Z,20.3
2016-06-07T18:58:43.363Z,20.2
2016-06-07T19:01:56.996Z,20.1
2016-06-07T19:05:10.179Z,20.1
2016-06-07T19:08:23.328Z,20
2016-06-07T19:11:41.492Z,19.9
2016-06-07T19:14:45.125Z,19.9
2016-06-07T19:17:58.414Z,19.8
2016-06-07T19:21:11.659Z,19.7
2016-06-07T19:24:21.964Z,19.7
2016-06-07T19:27:39.690Z,19.6
2016-06-07T19:30:48.371Z,19.5
2016-06-07T19:33:51.426Z,19.4
2016-06-07T19:37:04.309Z,19.3
2016-06-07T19:40:15.117Z,19.3
2016-06-07T19:43:30.593Z,19.3
2016-06-07T19:46:48.070Z,19.2
2016-06-07T19:49:51.578Z,19.2
2016-06-07T19:53:02.164Z,19.1
2016-06-07T19:56:15.253Z,18.9
2016-06-07T19:59:28.182Z,18.9
2016-06-07T20:02:46.168Z,18.8
2016-06-07T20:05:49.881Z,18.7
2016-06-07T20:09:03.214Z,18.6
2016-06-07T20:12:16.501Z,18.6
2016-06-07T20:15:29.951Z,18.5
2016-06-07T20:18:48.367Z,18.4
2016-06-07T20:21:51.735Z,18.3
2016-06-07T20:25:35.433Z,18.3
2016-06-07T20:28:47.254Z,18.2
2016-06-07T20:31:48.449Z,18.2
2016-06-07T20:35:03.676Z,18.1
2016-06-07T20:38:14.313Z,18.1
2016-06-07T20:41:27.305Z,18
2016-06-07T20:44:45.203Z,18
2016-06-07T20:47:48.556Z,17.9
2016-06-07T20:51:01.564Z,17.9
2016-06-07T20:54:14.027Z,17.8
2016-06-07T20:57:23.753Z,17.8
2016-06-07T21:00:35.136Z,17.7
2016-06-07T21:03:52.394Z,17.6
2016-06-07T21:06:56.621Z,17.5
2016-06-07T21:10:10.161Z,17.5
2016-06-07T21:13:23.656Z,17.4
2016-06-07T21:16:37.571Z,17.4
2016-06-07T21:19:56.517Z,17.3
2016-06-07T21:23:01.195Z,17.3
2016-06-07T21:26:15.613Z,17.3
2016-06-07T21:29:28.886Z,17.3
2016-06-07T21:32:41.785Z,17.2
2016-06-07T21:35:55.856Z,17.1
2016-06-07T21:39:10.021Z,16.9
2016-06-07T21:42:24.515Z,16.8
2016-06-07T21:45:38.914Z,16.7
2016-06-07T21:48:58.437Z,16.7
2016-06-07T21:52:03.337Z,16.7
2016-06-07T21:55:14.863Z,16.6
2016-06-07T21:58:29.199Z,16.5
2016-06-07T22:01:43.317Z,16.5
2016-06-07T22:04:57.559Z,16.4
2016-06-07T22:08:11.770Z,16.4
2016-06-07T22:11:25.874Z,16.4
2016-06-07T22:17:52.094Z,16.3
2016-06-07T22:21:06.227Z,16.3
2016-06-07T22:24:20.394Z,16.3
2016-06-07T22:27:34.606Z,16.3
2016-06-07T22:30:46.644Z,16.2
2016-06-07T22:34:07.730Z,16.1
2016-06-07T22:37:12.364Z,16.1
2016-06-07T22:40:26.624Z,16.1
2016-06-07T22:43:40.477Z,16
2016-06-07T22:46:59.735Z,16
2016-06-07T22:50:04.336Z,15.9
2016-06-07T22:53:17.160Z,15.9
2016-06-07T22:56:31.355Z,15.8
2016-06-07T22:59:45.411Z,15.7
2016-06-07T23:03:03.981Z,15.6
2016-06-07T23:06:10.035Z,15.6
2016-06-07T23:09:21.219Z,15.6
2016-06-07T23:12:35.554Z,15.5
2016-06-07T23:15:49.937Z,15.4
2016-06-07T23:19:09.243Z,15.4
2016-06-07T23:22:13.875Z,15.3
2016-06-07T23:25:28.214Z,15.3
2016-06-07T23:28:42.488Z,15.2
2016-06-07T23:31:54.339Z,15.2
2016-06-07T23:35:05.770Z,15.1
2016-06-07T23:38:19.827Z,15.1
2016-06-07T23:41:34.133Z,15
2016-06-07T23:44:47.157Z,15
2016-06-07T23:48:06.179Z,15
2016-06-07T23:51:10.798Z,14.9
2016-06-07T23:54:22.261Z,14.9
2016-06-07T23:57:36.409Z,14.8
